首页
METAR-TAF:

METAR-TAF

机场 :

Beatrice Municipal Airport

Beatrice, 內布拉斯加州, 美国

纬度: 40-18N, 经度: 096-45W, 海拔: 403米

当前天气观测

该预报发布于21分钟前的01:35 UTC
风速7节,风向南转南东
温度 11°C
湿度 50%
气压 1015 hPa
能見度: 16.1公里
天空无云

METAR: KBIE 170135Z AUTO 16007KT 10SM CLR 11/01 A2997 RMK AO2 T01120005

时间: 19:56 (01:56 UTC)


TAF: 丢失

超过4000个机场的气象观测和天气预报(METAR&TAF报告)。

可查询的气象台以黄色和红色小点在地图上表示。

将鼠标移到小点上方,可查看气象台名称。

然后点击查看天气观测和预报。

如需切换地图:点击带黑十字的绿色按钮放大地图;点击带横线的绿色按钮缩小地图;或者点击绿色箭头查看邻近地区的地图。


METAR-TAF: